sensor_id;sensor_type;location;lat;lon;timestamp;P1;durP1;ratioP1;P2;durP2;ratioP2
58553;SDS011;48119;53.218;6.576;2023-02-27T00:01:06;6.90;;;2.90;;
58553;SDS011;48119;53.218;6.576;2023-02-27T00:03:33;7.22;;;2.63;;
58553;SDS011;48119;53.218;6.576;2023-02-27T00:06:01;7.70;;;2.92;;
58553;SDS011;48119;53.218;6.576;2023-02-27T00:08:27;6.40;;;2.65;;
58553;SDS011;48119;53.218;6.576;2023-02-27T00:10:53;8.32;;;2.65;;
58553;SDS011;48119;53.218;6.576;2023-02-27T00:13:19;6.45;;;2.42;;
58553;SDS011;48119;53.218;6.576;2023-02-27T00:15:45;6.85;;;2.33;;
58553;SDS011;48119;53.218;6.576;2023-02-27T00:18:15;8.60;;;2.33;;
58553;SDS011;48119;53.218;6.576;2023-02-27T00:20:41;11.18;;;2.50;;
58553;SDS011;48119;53.218;6.576;2023-02-27T00:23:07;4.97;;;2.03;;
58553;SDS011;48119;53.218;6.576;2023-02-27T00:25:34;8.20;;;2.47;;
58553;SDS011;48119;53.218;6.576;2023-02-27T00:28:00;4.82;;;2.00;;
58553;SDS011;48119;53.218;6.576;2023-02-27T00:30:26;5.95;;;2.08;;
58553;SDS011;48119;53.218;6.576;2023-02-27T00:32:53;5.88;;;2.10;;
58553;SDS011;48119;53.218;6.576;2023-02-27T00:35:19;5.10;;;1.88;;
58553;SDS011;48119;53.218;6.576;2023-02-27T00:37:45;4.55;;;2.13;;
58553;SDS011;48119;53.218;6.576;2023-02-27T00:40:12;4.30;;;1.83;;
58553;SDS011;48119;53.218;6.576;2023-02-27T00:42:38;5.45;;;1.92;;
58553;SDS011;48119;53.218;6.576;2023-02-27T00:45:05;3.40;;;1.55;;
58553;SDS011;48119;53.218;6.576;2023-02-27T00:47:34;4.43;;;2.20;;
58553;SDS011;48119;53.218;6.576;2023-02-27T00:50:00;4.45;;;1.80;;
58553;SDS011;48119;53.218;6.576;2023-02-27T00:52:27;5.15;;;2.05;;
58553;SDS011;48119;53.218;6.576;2023-02-27T00:54:53;7.72;;;2.22;;
58553;SDS011;48119;53.218;6.576;2023-02-27T00:57:19;6.13;;;2.03;;
58553;SDS011;48119;53.218;6.576;2023-02-27T00:59:45;6.63;;;1.85;;
58553;SDS011;48119;53.218;6.576;2023-02-27T01:02:14;4.03;;;2.00;;
58553;SDS011;48119;53.218;6.576;2023-02-27T01:04:40;4.13;;;1.52;;
58553;SDS011;48119;53.218;6.576;2023-02-27T01:07:06;7.10;;;2.17;;
58553;SDS011;48119;53.218;6.576;2023-02-27T01:09:32;10.65;;;3.35;;
58553;SDS011;48119;53.218;6.576;2023-02-27T01:11:58;5.82;;;2.55;;
58553;SDS011;48119;53.218;6.576;2023-02-27T01:14:24;6.60;;;3.20;;
58553;SDS011;48119;53.218;6.576;2023-02-27T01:16:50;10.07;;;3.55;;
58553;SDS011;48119;53.218;6.576;2023-02-27T01:19:19;8.50;;;3.45;;
58553;SDS011;48119;53.218;6.576;2023-02-27T01:21:44;8.07;;;3.03;;
58553;SDS011;48119;53.218;6.576;2023-02-27T01:24:10;6.25;;;3.60;;
58553;SDS011;48119;53.218;6.576;2023-02-27T01:26:37;7.72;;;3.95;;
58553;SDS011;48119;53.218;6.576;2023-02-27T01:29:06;9.48;;;4.20;;
58553;SDS011;48119;53.218;6.576;2023-02-27T01:31:32;9.95;;;4.50;;
58553;SDS011;48119;53.218;6.576;2023-02-27T01:33:58;9.95;;;3.58;;
58553;SDS011;48119;53.218;6.576;2023-02-27T01:36:24;6.68;;;3.70;;
58553;SDS011;48119;53.218;6.576;2023-02-27T01:38:50;6.88;;;3.20;;
58553;SDS011;48119;53.218;6.576;2023-02-27T01:41:16;6.07;;;3.30;;
58553;SDS011;48119;53.218;6.576;2023-02-27T01:43:58;9.07;;;3.33;;
58553;SDS011;48119;53.218;6.576;2023-02-27T01:46:34;8.50;;;3.53;;
58553;SDS011;48119;53.218;6.576;2023-02-27T01:49:05;7.07;;;3.10;;
58553;SDS011;48119;53.218;6.576;2023-02-27T01:51:56;5.45;;;2.85;;
58553;SDS011;48119;53.218;6.576;2023-02-27T01:54:31;9.98;;;3.08;;
58553;SDS011;48119;53.218;6.576;2023-02-27T01:57:00;5.93;;;2.70;;
58553;SDS011;48119;53.218;6.576;2023-02-27T01:59:30;5.65;;;2.78;;
58553;SDS011;48119;53.218;6.576;2023-02-27T02:01:58;7.63;;;2.60;;
58553;SDS011;48119;53.218;6.576;2023-02-27T02:04:30;6.72;;;2.85;;
58553;SDS011;48119;53.218;6.576;2023-02-27T02:07:01;5.22;;;2.20;;
58553;SDS011;48119;53.218;6.576;2023-02-27T02:09:31;6.97;;;2.50;;
58553;SDS011;48119;53.218;6.576;2023-02-27T02:12:03;7.15;;;3.03;;
58553;SDS011;48119;53.218;6.576;2023-02-27T02:14:29;5.35;;;2.28;;
58553;SDS011;48119;53.218;6.576;2023-02-27T02:19:44;3.20;;;1.58;;
58553;SDS011;48119;53.218;6.576;2023-02-27T02:36:02;6.65;;;1.70;;
58553;SDS011;48119;53.218;6.576;2023-02-27T02:38:55;6.53;;;2.42;;
58553;SDS011;48119;53.218;6.576;2023-02-27T02:49:54;5.57;;;1.40;;
58553;SDS011;48119;53.218;6.576;2023-02-27T02:55:28;4.88;;;1.45;;
58553;SDS011;48119;53.218;6.576;2023-02-27T03:01:16;3.17;;;1.30;;
58553;SDS011;48119;53.218;6.576;2023-02-27T03:04:18;3.72;;;1.35;;
58553;SDS011;48119;53.218;6.576;2023-02-27T03:06:55;5.68;;;1.95;;
58553;SDS011;48119;53.218;6.576;2023-02-27T03:09:43;3.67;;;1.48;;
58553;SDS011;48119;53.218;6.576;2023-02-27T03:12:22;4.50;;;1.48;;
58553;SDS011;48119;53.218;6.576;2023-02-27T03:20:41;3.50;;;1.35;;
58553;SDS011;48119;53.218;6.576;2023-02-27T03:23:12;3.55;;;1.17;;
58553;SDS011;48119;53.218;6.576;2023-02-27T03:25:47;3.53;;;1.13;;
58553;SDS011;48119;53.218;6.576;2023-02-27T03:28:17;8.38;;;1.77;;
58553;SDS011;48119;53.218;6.576;2023-02-27T03:39:10;4.85;;;1.70;;
58553;SDS011;48119;53.218;6.576;2023-02-27T03:41:57;5.85;;;1.10;;
58553;SDS011;48119;53.218;6.576;2023-02-27T03:47:13;4.30;;;1.38;;
58553;SDS011;48119;53.218;6.576;2023-02-27T03:49:38;6.53;;;1.77;;
58553;SDS011;48119;53.218;6.576;2023-02-27T03:52:07;4.88;;;1.98;;
58553;SDS011;48119;53.218;6.576;2023-02-27T03:54:40;4.35;;;1.52;;
58553;SDS011;48119;53.218;6.576;2023-02-27T03:57:13;7.57;;;1.55;;
58553;SDS011;48119;53.218;6.576;2023-02-27T03:59:39;4.63;;;1.70;;
58553;SDS011;48119;53.218;6.576;2023-02-27T04:02:05;6.07;;;1.65;;
58553;SDS011;48119;53.218;6.576;2023-02-27T04:04:32;2.40;;;1.17;;
58553;SDS011;48119;53.218;6.576;2023-02-27T04:07:08;7.82;;;1.45;;
58553;SDS011;48119;53.218;6.576;2023-02-27T04:12:51;4.60;;;1.40;;
58553;SDS011;48119;53.218;6.576;2023-02-27T04:15:28;4.80;;;1.23;;
58553;SDS011;48119;53.218;6.576;2023-02-27T04:18:17;3.65;;;0.90;;
58553;SDS011;48119;53.218;6.576;2023-02-27T04:21:20;7.30;;;1.60;;
58553;SDS011;48119;53.218;6.576;2023-02-27T04:26:29;4.72;;;1.33;;
58553;SDS011;48119;53.218;6.576;2023-02-27T04:29:06;3.20;;;1.08;;
58553;SDS011;48119;53.218;6.576;2023-02-27T04:31:48;4.50;;;1.15;;
58553;SDS011;48119;53.218;6.576;2023-02-27T04:36:52;4.90;;;1.58;;
58553;SDS011;48119;53.218;6.576;2023-02-27T04:39:49;3.95;;;1.30;;
58553;SDS011;48119;53.218;6.576;2023-02-27T04:42:47;6.65;;;1.83;;
58553;SDS011;48119;53.218;6.576;2023-02-27T04:45:21;4.82;;;1.40;;
58553;SDS011;48119;53.218;6.576;2023-02-27T04:48:03;5.68;;;1.95;;
58553;SDS011;48119;53.218;6.576;2023-02-27T04:50:56;5.13;;;1.10;;
58553;SDS011;48119;53.218;6.576;2023-02-27T04:53:42;7.95;;;1.40;;
58553;SDS011;48119;53.218;6.576;2023-02-27T04:56:39;6.68;;;1.70;;
58553;SDS011;48119;53.218;6.576;2023-02-27T04:59:17;4.40;;;1.30;;
58553;SDS011;48119;53.218;6.576;2023-02-27T05:01:58;7.20;;;2.05;;
58553;SDS011;48119;53.218;6.576;2023-02-27T05:04:28;5.43;;;1.33;;
58553;SDS011;48119;53.218;6.576;2023-02-27T05:06:58;3.92;;;1.27;;
58553;SDS011;48119;53.218;6.576;2023-02-27T05:12:03;6.40;;;2.35;;
58553;SDS011;48119;53.218;6.576;2023-02-27T05:14:44;5.53;;;1.35;;
58553;SDS011;48119;53.218;6.576;2023-02-27T05:17:21;4.15;;;1.13;;
58553;SDS011;48119;53.218;6.576;2023-02-27T05:19:53;7.75;;;1.55;;
58553;SDS011;48119;53.218;6.576;2023-02-27T05:22:27;7.18;;;1.52;;
58553;SDS011;48119;53.218;6.576;2023-02-27T05:27:56;6.20;;;1.63;;
58553;SDS011;48119;53.218;6.576;2023-02-27T05:30:28;6.65;;;1.20;;
58553;SDS011;48119;53.218;6.576;2023-02-27T05:33:33;2.65;;;1.10;;
58553;SDS011;48119;53.218;6.576;2023-02-27T05:35:56;8.68;;;2.45;;
58553;SDS011;48119;53.218;6.576;2023-02-27T05:38:33;6.82;;;1.23;;
58553;SDS011;48119;53.218;6.576;2023-02-27T05:41:06;10.50;;;1.52;;
58553;SDS011;48119;53.218;6.576;2023-02-27T05:43:43;3.53;;;1.27;;
58553;SDS011;48119;53.218;6.576;2023-02-27T05:46:19;5.45;;;1.77;;
58553;SDS011;48119;53.218;6.576;2023-02-27T05:48:56;3.95;;;1.20;;
58553;SDS011;48119;53.218;6.576;2023-02-27T05:51:29;3.35;;;1.10;;
58553;SDS011;48119;53.218;6.576;2023-02-27T05:54:32;4.85;;;1.05;;
58553;SDS011;48119;53.218;6.576;2023-02-27T05:56:53;5.05;;;1.38;;
58553;SDS011;48119;53.218;6.576;2023-02-27T05:59:23;5.70;;;1.90;;
58553;SDS011;48119;53.218;6.576;2023-02-27T06:01:56;4.75;;;1.13;;
58553;SDS011;48119;53.218;6.576;2023-02-27T06:04:22;3.47;;;1.40;;
58553;SDS011;48119;53.218;6.576;2023-02-27T06:06:48;7.65;;;1.40;;
58553;SDS011;48119;53.218;6.576;2023-02-27T06:09:14;7.45;;;2.05;;
58553;SDS011;48119;53.218;6.576;2023-02-27T06:11:40;8.18;;;2.60;;
58553;SDS011;48119;53.218;6.576;2023-02-27T06:14:06;2.67;;;1.13;;
58553;SDS011;48119;53.218;6.576;2023-02-27T06:16:35;8.88;;;1.67;;
58553;SDS011;48119;53.218;6.576;2023-02-27T06:19:03;3.83;;;1.38;;
58553;SDS011;48119;53.218;6.576;2023-02-27T06:21:30;5.35;;;1.77;;
58553;SDS011;48119;53.218;6.576;2023-02-27T06:23:59;8.10;;;1.63;;
58553;SDS011;48119;53.218;6.576;2023-02-27T06:26:24;8.23;;;1.90;;
58553;SDS011;48119;53.218;6.576;2023-02-27T06:28:50;5.13;;;1.58;;
58553;SDS011;48119;53.218;6.576;2023-02-27T06:31:16;8.77;;;1.92;;
58553;SDS011;48119;53.218;6.576;2023-02-27T06:33:42;10.13;;;1.70;;
58553;SDS011;48119;53.218;6.576;2023-02-27T06:36:08;7.50;;;1.40;;
58553;SDS011;48119;53.218;6.576;2023-02-27T06:38:33;7.18;;;2.15;;
58553;SDS011;48119;53.218;6.576;2023-02-27T06:41:00;7.80;;;1.92;;
58553;SDS011;48119;53.218;6.576;2023-02-27T06:43:28;6.93;;;1.90;;
58553;SDS011;48119;53.218;6.576;2023-02-27T06:45:54;5.03;;;1.90;;
58553;SDS011;48119;53.218;6.576;2023-02-27T06:48:20;6.72;;;1.73;;
58553;SDS011;48119;53.218;6.576;2023-02-27T06:50:52;8.18;;;2.25;;
58553;SDS011;48119;53.218;6.576;2023-02-27T06:53:19;7.20;;;1.95;;
58553;SDS011;48119;53.218;6.576;2023-02-27T06:55:45;7.72;;;1.80;;
58553;SDS011;48119;53.218;6.576;2023-02-27T06:58:11;7.60;;;1.50;;
58553;SDS011;48119;53.218;6.576;2023-02-27T07:00:36;3.33;;;1.90;;
58553;SDS011;48119;53.218;6.576;2023-02-27T07:03:02;6.80;;;1.52;;
58553;SDS011;48119;53.218;6.576;2023-02-27T07:05:29;6.60;;;1.60;;
58553;SDS011;48119;53.218;6.576;2023-02-27T07:07:55;5.38;;;2.13;;
58553;SDS011;48119;53.218;6.576;2023-02-27T07:10:23;9.38;;;1.90;;
58553;SDS011;48119;53.218;6.576;2023-02-27T07:12:49;5.07;;;1.30;;
58553;SDS011;48119;53.218;6.576;2023-02-27T07:15:18;6.50;;;1.95;;
58553;SDS011;48119;53.218;6.576;2023-02-27T07:17:46;7.22;;;2.08;;
58553;SDS011;48119;53.218;6.576;2023-02-27T07:20:12;8.15;;;2.63;;
58553;SDS011;48119;53.218;6.576;2023-02-27T07:22:39;7.93;;;2.03;;
58553;SDS011;48119;53.218;6.576;2023-02-27T07:25:05;6.35;;;2.35;;
58553;SDS011;48119;53.218;6.576;2023-02-27T07:27:32;12.50;;;2.38;;
58553;SDS011;48119;53.218;6.576;2023-02-27T07:29:57;4.50;;;1.98;;
58553;SDS011;48119;53.218;6.576;2023-02-27T07:32:25;10.68;;;2.10;;
58553;SDS011;48119;53.218;6.576;2023-02-27T07:34:52;9.55;;;1.83;;
58553;SDS011;48119;53.218;6.576;2023-02-27T07:37:18;8.25;;;1.90;;
58553;SDS011;48119;53.218;6.576;2023-02-27T07:39:46;5.75;;;2.45;;
58553;SDS011;48119;53.218;6.576;2023-02-27T07:42:12;6.95;;;2.38;;
58553;SDS011;48119;53.218;6.576;2023-02-27T07:44:37;9.90;;;2.60;;
58553;SDS011;48119;53.218;6.576;2023-02-27T07:47:04;4.57;;;2.20;;
58553;SDS011;48119;53.218;6.576;2023-02-27T07:49:30;5.20;;;1.70;;
58553;SDS011;48119;53.218;6.576;2023-02-27T07:51:56;7.00;;;2.13;;
58553;SDS011;48119;53.218;6.576;2023-02-27T07:54:24;6.95;;;2.47;;
58553;SDS011;48119;53.218;6.576;2023-02-27T07:56:52;6.65;;;2.45;;
58553;SDS011;48119;53.218;6.576;2023-02-27T07:59:18;7.30;;;1.60;;
58553;SDS011;48119;53.218;6.576;2023-02-27T08:01:44;3.45;;;2.10;;
58553;SDS011;48119;53.218;6.576;2023-02-27T08:04:11;10.85;;;2.92;;
58553;SDS011;48119;53.218;6.576;2023-02-27T08:06:36;8.48;;;2.08;;
58553;SDS011;48119;53.218;6.576;2023-02-27T08:09:02;9.95;;;1.95;;
58553;SDS011;48119;53.218;6.576;2023-02-27T08:11:28;10.07;;;2.13;;
58553;SDS011;48119;53.218;6.576;2023-02-27T08:13:54;8.13;;;2.17;;
58553;SDS011;48119;53.218;6.576;2023-02-27T08:16:20;8.13;;;2.05;;
58553;SDS011;48119;53.218;6.576;2023-02-27T08:18:46;5.70;;;1.65;;
58553;SDS011;48119;53.218;6.576;2023-02-27T08:21:12;4.78;;;1.85;;
58553;SDS011;48119;53.218;6.576;2023-02-27T08:23:38;7.00;;;2.50;;
58553;SDS011;48119;53.218;6.576;2023-02-27T08:26:04;5.47;;;2.13;;
58553;SDS011;48119;53.218;6.576;2023-02-27T08:28:33;6.85;;;2.05;;
58553;SDS011;48119;53.218;6.576;2023-02-27T08:30:58;5.65;;;2.53;;
58553;SDS011;48119;53.218;6.576;2023-02-27T08:33:24;8.07;;;2.70;;
58553;SDS011;48119;53.218;6.576;2023-02-27T08:35:50;6.35;;;1.90;;
58553;SDS011;48119;53.218;6.576;2023-02-27T08:38:18;20.38;;;2.47;;
58553;SDS011;48119;53.218;6.576;2023-02-27T08:40:49;10.13;;;2.13;;
58553;SDS011;48119;53.218;6.576;2023-02-27T08:43:18;9.18;;;2.38;;
58553;SDS011;48119;53.218;6.576;2023-02-27T08:45:45;15.10;;;3.63;;
58553;SDS011;48119;53.218;6.576;2023-02-27T08:48:11;4.45;;;1.80;;
58553;SDS011;48119;53.218;6.576;2023-02-27T08:50:42;10.27;;;2.28;;
58553;SDS011;48119;53.218;6.576;2023-02-27T08:53:12;7.03;;;1.98;;
58553;SDS011;48119;53.218;6.576;2023-02-27T08:55:38;8.27;;;1.52;;
58553;SDS011;48119;53.218;6.576;2023-02-27T08:58:04;8.40;;;2.13;;
58553;SDS011;48119;53.218;6.576;2023-02-27T09:00:30;6.22;;;1.90;;
58553;SDS011;48119;53.218;6.576;2023-02-27T09:02:56;5.57;;;1.52;;
58553;SDS011;48119;53.218;6.576;2023-02-27T09:05:23;7.05;;;1.83;;
58553;SDS011;48119;53.218;6.576;2023-02-27T09:07:48;6.47;;;1.80;;
58553;SDS011;48119;53.218;6.576;2023-02-27T09:10:17;4.13;;;1.40;;
58553;SDS011;48119;53.218;6.576;2023-02-27T09:12:43;3.95;;;1.33;;
58553;SDS011;48119;53.218;6.576;2023-02-27T09:15:10;7.60;;;1.80;;
58553;SDS011;48119;53.218;6.576;2023-02-27T09:17:36;7.80;;;1.63;;
58553;SDS011;48119;53.218;6.576;2023-02-27T09:20:02;9.90;;;2.33;;
58553;SDS011;48119;53.218;6.576;2023-02-27T09:22:29;9.82;;;1.67;;
58553;SDS011;48119;53.218;6.576;2023-02-27T09:24:55;5.53;;;1.52;;
58553;SDS011;48119;53.218;6.576;2023-02-27T09:27:24;5.20;;;1.58;;
58553;SDS011;48119;53.218;6.576;2023-02-27T09:29:50;3.58;;;1.30;;
58553;SDS011;48119;53.218;6.576;2023-02-27T09:32:23;5.55;;;1.50;;
58553;SDS011;48119;53.218;6.576;2023-02-27T09:34:50;6.07;;;1.50;;
58553;SDS011;48119;53.218;6.576;2023-02-27T09:37:16;5.15;;;1.52;;
58553;SDS011;48119;53.218;6.576;2023-02-27T09:39:44;7.10;;;1.60;;
58553;SDS011;48119;53.218;6.576;2023-02-27T09:42:15;8.73;;;2.03;;
58553;SDS011;48119;53.218;6.576;2023-02-27T09:44:45;5.80;;;1.40;;
58553;SDS011;48119;53.218;6.576;2023-02-27T09:47:54;6.95;;;1.48;;
58553;SDS011;48119;53.218;6.576;2023-02-27T09:52:52;3.78;;;1.50;;
58553;SDS011;48119;53.218;6.576;2023-02-27T09:55:19;1.90;;;1.00;;
58553;SDS011;48119;53.218;6.576;2023-02-27T09:57:54;2.35;;;1.08;;
58553;SDS011;48119;53.218;6.576;2023-02-27T10:00:39;4.85;;;1.00;;
58553;SDS011;48119;53.218;6.576;2023-02-27T10:11:32;3.38;;;0.95;;
58553;SDS011;48119;53.218;6.576;2023-02-27T10:16:54;3.60;;;1.10;;
58553;SDS011;48119;53.218;6.576;2023-02-27T10:19:24;3.20;;;1.00;;
58553;SDS011;48119;53.218;6.576;2023-02-27T10:21:52;2.90;;;1.08;;
58553;SDS011;48119;53.218;6.576;2023-02-27T10:24:30;3.45;;;1.00;;
58553;SDS011;48119;53.218;6.576;2023-02-27T10:27:00;3.45;;;1.00;;
58553;SDS011;48119;53.218;6.576;2023-02-27T10:29:34;3.53;;;0.80;;
58553;SDS011;48119;53.218;6.576;2023-02-27T10:32:10;2.17;;;0.80;;
58553;SDS011;48119;53.218;6.576;2023-02-27T10:35:06;3.05;;;0.77;;
58553;SDS011;48119;53.218;6.576;2023-02-27T10:37:37;3.47;;;0.73;;
58553;SDS011;48119;53.218;6.576;2023-02-27T10:40:12;4.18;;;0.88;;
58553;SDS011;48119;53.218;6.576;2023-02-27T10:42:40;5.22;;;0.73;;
58553;SDS011;48119;53.218;6.576;2023-02-27T10:45:15;3.05;;;0.80;;
58553;SDS011;48119;53.218;6.576;2023-02-27T10:47:41;1.42;;;0.77;;
58553;SDS011;48119;53.218;6.576;2023-02-27T10:52:57;4.45;;;1.08;;
58553;SDS011;48119;53.218;6.576;2023-02-27T10:55:25;2.90;;;1.08;;
58553;SDS011;48119;53.218;6.576;2023-02-27T10:57:56;2.53;;;1.00;;
58553;SDS011;48119;53.218;6.576;2023-02-27T11:02:52;3.83;;;1.67;;
58553;SDS011;48119;53.218;6.576;2023-02-27T11:05:40;1.83;;;1.05;;
58553;SDS011;48119;53.218;6.576;2023-02-27T11:08:12;3.20;;;1.10;;
58553;SDS011;48119;53.218;6.576;2023-02-27T11:10:53;1.88;;;0.57;;
58553;SDS011;48119;53.218;6.576;2023-02-27T11:16:01;1.15;;;0.50;;
58553;SDS011;48119;53.218;6.576;2023-02-27T11:18:32;2.50;;;0.65;;
58553;SDS011;48119;53.218;6.576;2023-02-27T11:21:21;1.98;;;0.40;;
58553;SDS011;48119;53.218;6.576;2023-02-27T11:26:24;3.45;;;0.65;;
58553;SDS011;48119;53.218;6.576;2023-02-27T11:29:17;0.90;;;0.30;;
58553;SDS011;48119;53.218;6.576;2023-02-27T11:34:24;0.70;;;0.30;;
58553;SDS011;48119;53.218;6.576;2023-02-27T11:36:59;1.15;;;0.30;;
58553;SDS011;48119;53.218;6.576;2023-02-27T11:39:47;0.50;;;0.30;;
58553;SDS011;48119;53.218;6.576;2023-02-27T11:42:26;1.42;;;0.30;;
58553;SDS011;48119;53.218;6.576;2023-02-27T11:45:05;0.85;;;0.55;;
58553;SDS011;48119;53.218;6.576;2023-02-27T11:47:45;0.63;;;0.30;;
58553;SDS011;48119;53.218;6.576;2023-02-27T11:55:52;1.77;;;0.57;;
58553;SDS011;48119;53.218;6.576;2023-02-27T11:58:23;1.95;;;0.40;;
58553;SDS011;48119;53.218;6.576;2023-02-27T12:01:00;2.13;;;0.40;;
58553;SDS011;48119;53.218;6.576;2023-02-27T12:03:40;0.73;;;0.20;;
58553;SDS011;48119;53.218;6.576;2023-02-27T12:09:45;2.72;;;0.70;;
58553;SDS011;48119;53.218;6.576;2023-02-27T12:21:10;0.65;;;0.20;;
58553;SDS011;48119;53.218;6.576;2023-02-27T12:23:42;2.58;;;0.85;;
58553;SDS011;48119;53.218;6.576;2023-02-27T12:26:27;0.75;;;0.50;;
58553;SDS011;48119;53.218;6.576;2023-02-27T12:32:24;0.80;;;0.20;;
58553;SDS011;48119;53.218;6.576;2023-02-27T12:37:54;0.32;;;0.30;;
58553;SDS011;48119;53.218;6.576;2023-02-27T12:40:28;1.88;;;0.38;;
58553;SDS011;48119;53.218;6.576;2023-02-27T12:43:21;1.10;;;0.30;;
58553;SDS011;48119;53.218;6.576;2023-02-27T13:02:37;2.60;;;0.45;;
58553;SDS011;48119;53.218;6.576;2023-02-27T13:07:59;2.92;;;0.90;;
58553;SDS011;48119;53.218;6.576;2023-02-27T13:10:35;1.10;;;0.50;;
58553;SDS011;48119;53.218;6.576;2023-02-27T13:16:12;1.80;;;0.40;;
58553;SDS011;48119;53.218;6.576;2023-02-27T13:21:45;2.15;;;0.70;;
58553;SDS011;48119;53.218;6.576;2023-02-27T13:24:26;2.20;;;0.90;;
58553;SDS011;48119;53.218;6.576;2023-02-27T13:27:01;2.22;;;1.00;;
58553;SDS011;48119;53.218;6.576;2023-02-27T13:29:38;2.38;;;0.82;;
58553;SDS011;48119;53.218;6.576;2023-02-27T13:34:46;1.60;;;0.40;;
58553;SDS011;48119;53.218;6.576;2023-02-27T13:37:19;1.80;;;0.50;;
58553;SDS011;48119;53.218;6.576;2023-02-27T13:44:57;1.83;;;0.70;;
58553;SDS011;48119;53.218;6.576;2023-02-27T13:49:58;1.52;;;0.40;;
58553;SDS011;48119;53.218;6.576;2023-02-27T13:52:33;1.60;;;0.35;;
58553;SDS011;48119;53.218;6.576;2023-02-27T13:55:00;1.42;;;0.40;;
58553;SDS011;48119;53.218;6.576;2023-02-27T13:57:31;3.17;;;0.75;;
58553;SDS011;48119;53.218;6.576;2023-02-27T14:00:00;1.38;;;0.52;;
58553;SDS011;48119;53.218;6.576;2023-02-27T14:05:35;1.30;;;0.73;;
58553;SDS011;48119;53.218;6.576;2023-02-27T14:10:49;1.55;;;0.40;;
58553;SDS011;48119;53.218;6.576;2023-02-27T14:16:49;2.35;;;0.40;;
58553;SDS011;48119;53.218;6.576;2023-02-27T14:19:20;1.55;;;0.38;;
58553;SDS011;48119;53.218;6.576;2023-02-27T14:24:18;1.35;;;0.63;;
58553;SDS011;48119;53.218;6.576;2023-02-27T14:26:50;3.17;;;0.70;;
58553;SDS011;48119;53.218;6.576;2023-02-27T14:29:20;2.42;;;0.40;;
58553;SDS011;48119;53.218;6.576;2023-02-27T14:31:50;2.35;;;0.50;;
58553;SDS011;48119;53.218;6.576;2023-02-27T14:34:19;2.55;;;0.80;;
58553;SDS011;48119;53.218;6.576;2023-02-27T14:36:53;0.90;;;0.52;;
58553;SDS011;48119;53.218;6.576;2023-02-27T14:39:29;3.30;;;0.90;;
58553;SDS011;48119;53.218;6.576;2023-02-27T14:44:49;1.35;;;0.50;;
58553;SDS011;48119;53.218;6.576;2023-02-27T14:49:53;5.38;;;0.50;;
58553;SDS011;48119;53.218;6.576;2023-02-27T14:52:21;1.13;;;0.40;;
58553;SDS011;48119;53.218;6.576;2023-02-27T14:54:50;2.95;;;0.47;;
58553;SDS011;48119;53.218;6.576;2023-02-27T14:57:21;1.98;;;0.52;;
58553;SDS011;48119;53.218;6.576;2023-02-27T14:59:51;2.55;;;0.43;;
58553;SDS011;48119;53.218;6.576;2023-02-27T15:02:22;2.53;;;0.68;;
58553;SDS011;48119;53.218;6.576;2023-02-27T15:04:53;3.13;;;0.60;;
58553;SDS011;48119;53.218;6.576;2023-02-27T15:07:27;1.17;;;0.30;;
58553;SDS011;48119;53.218;6.576;2023-02-27T15:09:56;1.33;;;0.60;;
58553;SDS011;48119;53.218;6.576;2023-02-27T15:12:27;1.85;;;0.70;;
58553;SDS011;48119;53.218;6.576;2023-02-27T15:14:55;1.00;;;0.30;;
58553;SDS011;48119;53.218;6.576;2023-02-27T15:17:35;1.77;;;0.77;;
58553;SDS011;48119;53.218;6.576;2023-02-27T15:20:33;3.75;;;1.27;;
58553;SDS011;48119;53.218;6.576;2023-02-27T15:23:19;3.25;;;0.77;;
58553;SDS011;48119;53.218;6.576;2023-02-27T15:25:52;3.05;;;0.75;;
58553;SDS011;48119;53.218;6.576;2023-02-27T15:28:25;1.80;;;0.47;;
58553;SDS011;48119;53.218;6.576;2023-02-27T15:30:55;1.85;;;0.73;;
58553;SDS011;48119;53.218;6.576;2023-02-27T15:33:27;3.13;;;0.80;;
58553;SDS011;48119;53.218;6.576;2023-02-27T15:36:00;3.33;;;0.52;;
58553;SDS011;48119;53.218;6.576;2023-02-27T15:38:30;0.98;;;0.40;;
58553;SDS011;48119;53.218;6.576;2023-02-27T15:41:05;2.25;;;1.00;;
58553;SDS011;48119;53.218;6.576;2023-02-27T15:43:38;2.05;;;0.50;;
58553;SDS011;48119;53.218;6.576;2023-02-27T15:46:05;1.27;;;0.40;;
58553;SDS011;48119;53.218;6.576;2023-02-27T15:48:31;3.47;;;0.63;;
58553;SDS011;48119;53.218;6.576;2023-02-27T15:50:58;4.07;;;0.50;;
58553;SDS011;48119;53.218;6.576;2023-02-27T15:53:28;2.22;;;0.50;;
58553;SDS011;48119;53.218;6.576;2023-02-27T15:56:02;3.45;;;0.60;;
58553;SDS011;48119;53.218;6.576;2023-02-27T15:58:34;1.85;;;0.52;;
58553;SDS011;48119;53.218;6.576;2023-02-27T16:01:27;5.35;;;0.68;;
58553;SDS011;48119;53.218;6.576;2023-02-27T16:04:05;1.65;;;0.70;;
58553;SDS011;48119;53.218;6.576;2023-02-27T16:06:45;2.20;;;1.13;;
58553;SDS011;48119;53.218;6.576;2023-02-27T16:09:33;2.42;;;0.77;;
58553;SDS011;48119;53.218;6.576;2023-02-27T16:14:44;2.60;;;0.90;;
58553;SDS011;48119;53.218;6.576;2023-02-27T16:17:26;4.65;;;1.30;;
58553;SDS011;48119;53.218;6.576;2023-02-27T16:19:57;3.75;;;0.50;;
58553;SDS011;48119;53.218;6.576;2023-02-27T16:22:25;2.45;;;0.50;;
58553;SDS011;48119;53.218;6.576;2023-02-27T16:24:51;2.00;;;0.63;;
58553;SDS011;48119;53.218;6.576;2023-02-27T16:27:22;1.55;;;0.88;;
58553;SDS011;48119;53.218;6.576;2023-02-27T16:29:55;2.92;;;0.68;;
58553;SDS011;48119;53.218;6.576;2023-02-27T16:35:07;4.32;;;0.80;;
58553;SDS011;48119;53.218;6.576;2023-02-27T16:37:42;3.58;;;0.75;;
58553;SDS011;48119;53.218;6.576;2023-02-27T16:40:14;1.52;;;1.08;;
58553;SDS011;48119;53.218;6.576;2023-02-27T16:42:48;11.25;;;4.68;;
58553;SDS011;48119;53.218;6.576;2023-02-27T16:45:16;7.65;;;2.90;;
58553;SDS011;48119;53.218;6.576;2023-02-27T16:47:47;4.35;;;1.00;;
58553;SDS011;48119;53.218;6.576;2023-02-27T16:50:18;7.95;;;2.22;;
58553;SDS011;48119;53.218;6.576;2023-02-27T16:52:45;2.40;;;0.82;;
58553;SDS011;48119;53.218;6.576;2023-02-27T16:55:12;5.70;;;1.63;;
58553;SDS011;48119;53.218;6.576;2023-02-27T16:57:40;5.38;;;1.63;;
58553;SDS011;48119;53.218;6.576;2023-02-27T17:00:06;3.50;;;1.35;;
58553;SDS011;48119;53.218;6.576;2023-02-27T17:02:35;4.00;;;1.30;;
58553;SDS011;48119;53.218;6.576;2023-02-27T17:05:09;6.07;;;1.40;;
58553;SDS011;48119;53.218;6.576;2023-02-27T17:07:43;5.50;;;1.85;;
58553;SDS011;48119;53.218;6.576;2023-02-27T17:10:16;6.22;;;1.52;;
58553;SDS011;48119;53.218;6.576;2023-02-27T17:12:46;2.60;;;1.27;;
58553;SDS011;48119;53.218;6.576;2023-02-27T17:15:12;3.67;;;1.05;;
58553;SDS011;48119;53.218;6.576;2023-02-27T17:17:39;4.05;;;1.10;;
58553;SDS011;48119;53.218;6.576;2023-02-27T17:20:08;8.68;;;1.65;;
58553;SDS011;48119;53.218;6.576;2023-02-27T17:22:35;6.93;;;1.58;;
58553;SDS011;48119;53.218;6.576;2023-02-27T17:25:03;3.70;;;1.70;;
58553;SDS011;48119;53.218;6.576;2023-02-27T17:27:32;7.32;;;1.58;;
58553;SDS011;48119;53.218;6.576;2023-02-27T17:29:58;6.10;;;1.90;;
58553;SDS011;48119;53.218;6.576;2023-02-27T17:32:24;7.80;;;4.22;;
58553;SDS011;48119;53.218;6.576;2023-02-27T17:34:56;4.13;;;1.60;;
58553;SDS011;48119;53.218;6.576;2023-02-27T17:37:23;5.00;;;1.42;;
58553;SDS011;48119;53.218;6.576;2023-02-27T17:39:49;4.18;;;2.00;;
58553;SDS011;48119;53.218;6.576;2023-02-27T17:42:15;6.03;;;3.00;;
58553;SDS011;48119;53.218;6.576;2023-02-27T17:44:44;4.50;;;1.50;;
58553;SDS011;48119;53.218;6.576;2023-02-27T17:47:12;5.35;;;1.70;;
58553;SDS011;48119;53.218;6.576;2023-02-27T17:49:38;6.93;;;2.90;;
58553;SDS011;48119;53.218;6.576;2023-02-27T17:52:04;6.43;;;1.80;;
58553;SDS011;48119;53.218;6.576;2023-02-27T17:54:34;3.20;;;1.50;;
58553;SDS011;48119;53.218;6.576;2023-02-27T17:57:01;2.28;;;1.40;;
58553;SDS011;48119;53.218;6.576;2023-02-27T17:59:29;5.30;;;1.50;;
58553;SDS011;48119;53.218;6.576;2023-02-27T18:02:05;7.93;;;2.00;;
58553;SDS011;48119;53.218;6.576;2023-02-27T18:07:05;11.90;;;5.00;;